Time;durP1;ratioP1;P1;durP2;ratioP2;P2;SDS_P1;SDS_P2;PMS_P1;PMS_P2;Temp;Humidity;BMP_temperature;BMP_pressure;BME280_temperature;BME280_humidity;BME280_pressure;Samples;Min_cycle;Max_cycle;Signal;HPM_P1;HPM_P2
2021/12/06 00:03:49;;;;;;;67.03;38.67;;;;;;;2.80;93.35;99517.24;2979358;80;20955;-69
2021/12/06 00:07:51;;;;;;;55.45;35.75;;;;;;;2.75;93.65;99512.72;2955072;80;21053;-69
2021/12/06 00:11:56;;;;;;;61.58;36.38;;;;;;;2.81;93.43;99514.50;2978817;80;21003;-69
2021/12/06 00:15:59;;;;;;;60.25;37.75;;;;;;;2.74;93.28;99512.34;2979333;80;21057;-69
2021/12/06 00:20:01;;;;;;;55.75;36.58;;;;;;;2.74;93.41;99516.29;2978681;80;21018;-69
2021/12/06 00:24:03;;;;;;;62.83;39.20;;;;;;;2.68;93.82;99524.09;2979062;80;21494;-69
2021/12/06 00:28:05;;;;;;;70.52;41.00;;;;;;;2.73;93.73;99520.72;2979069;80;21069;-69
2021/12/06 00:32:08;;;;;;;62.85;39.85;;;;;;;2.68;93.80;99534.13;2979185;80;21002;-69
2021/12/06 00:36:16;;;;;;;57.33;34.98;;;;;;;2.71;93.72;99536.55;2979205;80;21014;-69
2021/12/06 00:40:13;;;;;;;63.52;38.40;;;;;;;2.81;93.35;99532.89;2977848;80;21078;-69
2021/12/06 00:44:15;;;;;;;74.03;40.03;;;;;;;2.87;92.58;99534.30;2978927;80;21530;-69
2021/12/06 00:48:16;;;;;;;66.45;41.42;;;;;;;3.02;91.98;99536.92;2978873;80;20994;-69
2021/12/06 00:52:19;;;;;;;61.35;40.85;;;;;;;3.09;90.95;99536.91;2978954;80;21022;-69
2021/12/06 00:56:21;;;;;;;61.05;40.55;;;;;;;3.16;90.45;99539.99;2978717;80;20959;-69
2021/12/06 01:00:35;;;;;;;68.92;41.63;;;;;;;3.16;89.86;99538.22;2978874;80;20987;-68
2021/12/06 01:04:40;;;;;;;63.52;39.38;;;;;;;3.15;89.60;99543.11;2970328;80;20982;-69
2021/12/06 01:08:42;;;;;;;80.60;43.90;;;;;;;3.16;89.68;99543.94;2978781;80;20939;-68
2021/12/06 01:12:44;;;;;;;82.33;48.45;;;;;;;3.12;89.71;99538.88;2978612;79;20991;-68
2021/12/06 01:16:47;;;;;;;73.02;43.00;;;;;;;3.12;89.76;99547.22;2978289;80;20974;-68
2021/12/06 01:20:56;;;;;;;73.80;45.80;;;;;;;3.11;89.78;99548.16;2978649;80;20971;-68
2021/12/06 01:25:02;;;;;;;74.87;39.30;;;;;;;3.12;89.87;99552.47;2977734;80;21625;-69
2021/12/06 01:29:26;;;;;;;78.30;45.92;;;;;;;3.06;90.20;99554.18;2977424;80;21794;-69
2021/12/06 01:41:57;;;;;;;79.50;45.43;;;;;;;2.96;91.06;99576.23;2978481;80;21041;-69
2021/12/06 01:45:58;;;;;;;88.97;46.13;;;;;;;2.90;91.34;99577.94;2978461;80;20990;-69
2021/12/06 01:50:08;;;;;;;89.15;46.77;;;;;;;2.88;91.53;99584.59;2978483;80;21216;-69
2021/12/06 01:54:12;;;;;;;67.22;40.67;;;;;;;2.81;91.61;99596.42;2978206;80;21554;-69
2021/12/06 01:58:13;;;;;;;80.60;43.10;;;;;;;2.77;91.68;99600.17;2978614;80;20963;-69
2021/12/06 02:02:16;;;;;;;75.35;46.45;;;;;;;2.69;91.87;99610.66;2978196;80;21037;-69
2021/12/06 02:06:18;;;;;;;68.92;46.68;;;;;;;2.66;92.09;99611.33;2978097;80;20990;-69
2021/12/06 02:10:22;;;;;;;65.15;40.28;;;;;;;2.61;92.25;99611.59;2978421;80;21026;-69
2021/12/06 02:14:44;;;;;;;67.75;45.50;;;;;;;2.52;91.64;99614.75;2978140;80;20990;-69
2021/12/06 02:18:45;;;;;;;72.32;41.73;;;;;;;2.43;92.00;99619.63;2973042;80;21017;-69
2021/12/06 02:22:46;;;;;;;65.53;40.43;;;;;;;2.44;92.38;99616.51;2977700;80;20971;-69
2021/12/06 02:26:47;;;;;;;65.25;41.70;;;;;;;2.39;92.12;99613.32;2977942;80;20974;-69
2021/12/06 02:30:49;;;;;;;80.97;46.75;;;;;;;2.37;92.27;99616.50;2978144;80;21014;-70
2021/12/06 02:34:54;;;;;;;67.92;44.15;;;;;;;2.30;92.04;99618.64;2977820;80;21049;-69
2021/12/06 02:38:57;;;;;;;67.40;40.30;;;;;;;2.29;92.48;99620.88;2978017;80;20979;-70
2021/12/06 02:43:01;;;;;;;73.25;45.00;;;;;;;2.28;92.49;99625.76;2978171;80;21054;-70
2021/12/06 02:47:04;;;;;;;68.83;44.63;;;;;;;2.25;92.77;99636.44;2978246;80;21025;-70
2021/12/06 02:51:08;;;;;;;67.25;39.40;;;;;;;2.14;92.71;99635.27;2977630;80;21503;-69
2021/12/06 02:55:29;;;;;;;82.80;49.40;;;;;;;2.14;92.71;99635.27;2953271;80;20970;-69
2021/12/06 02:59:14;;;;;;;76.72;45.30;;;;;;;2.17;93.07;99646.55;2974696;80;21011;-70
2021/12/06 03:03:18;;;;;;;73.28;43.90;;;;;;;2.17;92.64;99649.17;2978129;80;20943;-70
2021/12/06 03:07:21;;;;;;;70.83;43.90;;;;;;;2.17;92.73;99655.73;2978119;80;21586;-70
2021/12/06 03:11:30;;;;;;;76.07;44.33;;;;;;;2.20;92.67;99655.55;2975065;79;21531;-69
2021/12/06 03:15:32;;;;;;;76.85;46.02;;;;;;;2.24;92.47;99651.81;2970217;80;21459;-70
2021/12/06 03:19:35;;;;;;;77.32;44.33;;;;;;;2.28;91.97;99650.23;2970060;80;20986;-69
2021/12/06 03:23:36;;;;;;;81.80;45.58;;;;;;;2.29;91.81;99653.69;2969675;80;21022;-70
2021/12/06 03:27:39;;;;;;;78.57;53.30;;;;;;;2.24;91.47;99654.43;2969645;80;20959;-70
2021/12/06 03:31:42;;;;;;;73.07;49.60;;;;;;;2.27;91.80;99658.19;2970121;80;20971;-69
2021/12/06 03:35:43;;;;;;;82.30;47.73;;;;;;;2.25;91.51;99652.19;2970429;80;21594;-70
2021/12/06 03:39:47;;;;;;;81.53;51.15;;;;;;;2.22;91.33;99654.99;2970313;80;20982;-69
2021/12/06 03:43:50;;;;;;;77.15;47.10;;;;;;;2.18;91.40;99661.35;2970229;80;20955;-70
2021/12/06 03:47:52;;;;;;;71.77;45.70;;;;;;;2.16;91.35;99667.13;2970514;80;20987;-69
2021/12/06 03:51:54;;;;;;;94.25;55.12;;;;;;;2.14;91.43;99677.73;2970544;80;21033;-69
2021/12/06 03:55:57;;;;;;;75.35;49.10;;;;;;;2.13;91.72;99678.18;2970448;80;21045;-69
2021/12/06 03:59:58;;;;;;;93.05;57.23;;;;;;;2.16;91.85;99685.50;2970027;80;21041;-70
2021/12/06 04:04:04;;;;;;;101.20;58.70;;;;;;;2.20;91.95;99682.62;2970629;80;21487;-70
2021/12/06 04:08:06;;;;;;;86.87;52.27;;;;;;;2.24;91.64;99680.19;2970660;80;21478;-70
2021/12/06 04:12:09;;;;;;;87.02;52.15;;;;;;;2.26;91.32;99698.49;2970270;80;20987;-70
2021/12/06 04:16:11;;;;;;;83.42;54.08;;;;;;;2.28;91.05;99704.49;2970271;80;21499;-70
2021/12/06 04:20:13;;;;;;;94.47;57.35;;;;;;;2.24;90.99;99702.50;2970460;80;20995;-70
2021/12/06 04:24:16;;;;;;;97.62;54.45;;;;;;;2.25;91.06;99699.42;2970761;80;20991;-70
2021/12/06 04:28:19;;;;;;;84.03;52.85;;;;;;;2.29;91.01;99703.56;2970506;80;20939;-70
2021/12/06 04:32:23;;;;;;;83.97;49.38;;;;;;;2.23;91.18;99707.38;2970552;80;21010;-70
2021/12/06 04:36:25;;;;;;;84.20;52.53;;;;;;;2.17;91.45;99708.21;2970326;80;20998;-70
2021/12/06 04:40:27;;;;;;;88.87;51.13;;;;;;;2.14;91.45;99715.78;2970502;80;21026;-70
2021/12/06 04:44:29;;;;;;;87.17;53.52;;;;;;;2.11;91.32;99724.66;2970797;80;21017;-70
2021/12/06 04:48:31;;;;;;;72.92;40.75;;;;;;;2.18;91.52;99721.70;2970591;80;20983;-70
2021/12/06 04:52:33;;;;;;;69.70;46.20;;;;;;;2.20;91.12;99731.17;2970762;80;21022;-70
2021/12/06 04:56:42;;;;;;;84.32;52.67;;;;;;;2.23;90.83;99732.30;2970626;80;21054;-69
2021/12/06 05:00:52;;;;;;;79.67;49.38;;;;;;;2.21;90.65;99722.36;2970549;80;21022;-70
2021/12/06 05:04:58;;;;;;;93.33;52.73;;;;;;;2.28;90.68;99735.54;2970253;80;20963;-73
2021/12/06 05:09:03;;;;;;;;;;;;;;;2.27;90.71;99742.17;2973099;80;20986;-72
2021/12/06 05:13:06;;;;;;;70.63;43.20;;;;;;;2.20;90.84;99741.66;2969980;80;20115;-73
2021/12/06 05:17:08;;;;;;;73.10;44.60;;;;;;;2.13;91.18;99741.64;2970190;80;21038;-69
2021/12/06 05:21:10;;;;;;;74.35;42.95;;;;;;;2.09;91.12;99744.89;2970343;80;20963;-69
2021/12/06 05:25:14;;;;;;;75.20;47.25;;;;;;;2.12;91.12;99743.41;2970559;80;20915;-69
2021/12/06 05:29:20;;;;;;;84.10;47.75;;;;;;;2.14;91.09;99746.78;2970652;80;21017;-68
2021/12/06 05:33:29;;;;;;;85.15;50.08;;;;;;;2.19;90.95;99745.70;2970823;80;20998;-69
2021/12/06 05:37:25;;;;;;;77.00;45.52;;;;;;;2.20;90.79;99751.33;2969179;80;21057;-68
2021/12/06 05:41:27;;;;;;;74.82;46.42;;;;;;;2.18;90.69;99753.20;2970921;80;20991;-68
2021/12/06 05:45:31;;;;;;;72.67;45.15;;;;;;;2.15;90.74;99756.83;2970436;80;21617;-69
2021/12/06 05:49:33;;;;;;;76.75;44.03;;;;;;;2.15;90.85;99771.27;2970493;80;21006;-69
2021/12/06 05:53:35;;;;;;;83.42;43.15;;;;;;;2.13;90.90;99772.64;2970609;80;21486;-69
2021/12/06 05:57:38;;;;;;;81.30;46.92;;;;;;;2.09;91.02;99774.23;2970379;80;20975;-69
2021/12/06 06:01:39;;;;;;;83.27;48.45;;;;;;;2.08;91.16;99779.93;2970896;80;20994;-69
2021/12/06 06:05:42;;;;;;;76.17;46.08;;;;;;;2.04;91.00;99781.03;2970798;80;21006;-69
2021/12/06 06:09:44;;;;;;;85.42;45.67;;;;;;;2.16;90.97;99797.88;2970469;80;21049;-69
2021/12/06 06:13:45;;;;;;;82.22;47.38;;;;;;;2.18;90.44;99796.02;2970197;80;21094;-69
2021/12/06 06:17:47;;;;;;;69.05;45.05;;;;;;;2.19;90.26;99799.50;2970597;80;21015;-69
2021/12/06 06:21:50;;;;;;;62.05;42.33;;;;;;;2.23;90.58;99804.96;2968532;80;21003;-69
2021/12/06 06:25:52;;;;;;;80.80;41.68;;;;;;;2.19;90.56;99807.38;2957927;80;20987;-69
2021/12/06 06:29:53;;;;;;;79.17;45.20;;;;;;;2.22;90.42;99819.02;2957934;80;20995;-69
2021/12/06 06:33:55;;;;;;;67.10;45.38;;;;;;;2.27;90.49;99823.09;2957853;80;21043;-69
2021/12/06 06:37:58;;;;;;;63.10;41.65;;;;;;;2.26;90.39;99827.09;2957574;80;20991;-68
2021/12/06 06:41:59;;;;;;;74.07;42.13;;;;;;;2.27;90.13;99833.59;2957871;80;21042;-68
2021/12/06 06:46:03;;;;;;;84.22;43.65;;;;;;;2.31;90.01;99843.91;2957933;80;20972;-69
2021/12/06 06:50:07;;;;;;;78.35;42.83;;;;;;;2.38;90.06;99846.57;2957619;79;20991;-69
2021/12/06 06:54:09;;;;;;;83.05;48.73;;;;;;;2.39;89.82;99847.81;2957757;79;21003;-69
2021/12/06 06:58:11;;;;;;;73.00;46.40;;;;;;;2.40;89.79;99854.75;2957431;80;20984;-69
2021/12/06 07:02:14;;;;;;;76.82;46.55;;;;;;;2.38;89.89;99854.00;2957474;80;20999;-69
2021/12/06 07:06:16;;;;;;;77.60;41.25;;;;;;;2.38;90.03;99864.50;2957607;80;20956;-69
2021/12/06 07:10:17;;;;;;;71.82;43.50;;;;;;;2.35;90.50;99861.18;2957272;80;21432;-69
2021/12/06 07:14:19;;;;;;;67.27;42.35;;;;;;;2.37;90.74;99866.74;2956993;79;21527;-69
2021/12/06 07:18:21;;;;;;;66.57;40.52;;;;;;;2.38;90.91;99876.31;2956817;80;21015;-68
2021/12/06 07:22:23;;;;;;;76.85;44.27;;;;;;;2.36;90.67;99878.17;2957179;80;20963;-68
2021/12/06 07:26:25;;;;;;;82.08;46.68;;;;;;;2.43;90.73;99877.34;2957011;80;21003;-68
2021/12/06 07:30:27;;;;;;;73.72;42.80;;;;;;;2.42;90.54;99875.20;2956871;79;20964;-69
2021/12/06 07:34:28;;;;;;;82.75;45.45;;;;;;;2.51;90.53;99871.69;2956805;80;20968;-69
2021/12/06 07:38:30;;;;;;;79.50;43.70;;;;;;;2.54;90.28;99876.31;2956997;80;20984;-69
2021/12/06 07:42:32;;;;;;;78.85;43.73;;;;;;;2.55;89.77;99871.89;2957261;80;21035;-69
2021/12/06 07:46:34;;;;;;;76.37;44.98;;;;;;;2.55;89.70;99875.38;2957082;79;20996;-68
2021/12/06 07:50:36;;;;;;;73.72;42.15;;;;;;;2.61;89.74;99882.08;2957173;80;20995;-69
2021/12/06 07:54:39;;;;;;;84.35;46.48;;;;;;;2.55;89.76;99882.39;2957337;79;21019;-73
2021/12/06 07:58:41;;;;;;;72.15;39.25;;;;;;;2.57;89.72;99888.44;2956840;80;21018;-72
2021/12/06 08:02:43;;;;;;;78.10;45.83;;;;;;;2.54;89.55;99888.58;2935235;79;20994;-71
2021/12/06 08:06:45;;;;;;;69.82;43.10;;;;;;;2.48;89.46;99892.86;2926483;81;21007;-72
2021/12/06 08:10:52;;;;;;;69.80;41.77;;;;;;;2.52;89.59;99893.93;2916486;81;21007;-72
2021/12/06 08:14:53;;;;;;;73.07;41.08;;;;;;;2.56;89.53;99902.02;2916253;81;21082;-73
2021/12/06 08:18:55;;;;;;;61.15;40.63;;;;;;;2.51;89.50;99905.81;2916668;81;21049;-73
2021/12/06 08:22:57;;;;;;;69.55;43.45;;;;;;;2.51;89.82;99909.30;2916837;81;21459;-72
2021/12/06 08:26:58;;;;;;;65.45;38.95;;;;;;;2.43;90.28;99913.66;2916504;81;21022;-72
2021/12/06 08:31:01;;;;;;;66.62;39.88;;;;;;;2.41;90.50;99908.09;2916816;81;20971;-72
2021/12/06 08:35:05;;;;;;;63.92;41.63;;;;;;;2.41;90.97;99910.27;2916511;81;20967;-71
2021/12/06 08:39:07;;;;;;;68.22;41.58;;;;;;;2.43;91.10;99915.42;2916324;81;21042;-72
2021/12/06 08:43:16;;;;;;;68.17;37.85;;;;;;;2.50;91.38;99912.00;2917153;81;21026;-73
2021/12/06 08:47:17;;;;;;;72.03;40.03;;;;;;;2.46;91.49;99919.67;2916361;81;21053;-73
2021/12/06 08:51:46;;;;;;;68.17;40.50;;;;;;;2.42;91.52;99921.59;2916546;81;21400;-72
2021/12/06 08:55:48;;;;;;;54.90;34.33;;;;;;;2.39;91.56;99927.02;2916632;81;21038;-73
2021/12/06 08:59:51;;;;;;;58.73;36.63;;;;;;;2.39;91.82;99933.13;2916558;81;21026;-73
2021/12/06 09:03:53;;;;;;;64.82;36.80;;;;;;;2.46;91.92;99938.91;2916665;81;20967;-73
2021/12/06 09:07:55;;;;;;;73.75;44.77;;;;;;;2.42;91.73;99936.91;2916501;81;21527;-73
2021/12/06 09:11:57;;;;;;;76.45;35.33;;;;;;;2.48;91.60;99937.49;2913880;81;21078;-73
2021/12/06 09:16:02;;;;;;;59.85;37.83;;;;;;;2.52;91.47;99937.26;2896990;82;21066;-72
2021/12/06 09:20:07;;;;;;;52.55;34.85;;;;;;;2.55;91.48;99948.03;2896903;82;21522;-73
2021/12/06 09:24:14;;;;;;;68.70;39.25;;;;;;;2.50;91.36;99948.31;2897453;82;20991;-73
2021/12/06 09:28:18;;;;;;;53.55;35.52;;;;;;;2.56;91.37;99949.77;2897205;82;21653;-73
2021/12/06 09:32:19;;;;;;;62.33;39.58;;;;;;;2.54;91.50;99958.16;2896985;82;21015;-73
2021/12/06 09:36:22;;;;;;;48.85;32.05;;;;;;;2.58;91.46;99958.41;2897064;82;21066;-73
2021/12/06 09:40:27;;;;;;;59.98;36.10;;;;;;;2.61;91.26;99960.00;2897205;82;20987;-72
2021/12/06 09:44:29;;;;;;;60.90;39.27;;;;;;;2.61;91.29;99960.00;2897179;82;20991;-73
2021/12/06 09:48:31;;;;;;;59.75;33.18;;;;;;;2.57;91.04;99963.28;2896857;82;21007;-73
2021/12/06 09:52:33;;;;;;;59.80;32.13;;;;;;;2.49;91.38;99963.69;2897215;82;20983;-72
2021/12/06 09:56:40;;;;;;;48.38;30.95;;;;;;;2.43;91.15;99964.84;2897128;82;21082;-73
2021/12/06 10:00:47;;;;;;;47.93;31.77;;;;;;;2.46;91.49;99968.23;2896629;82;22055;-68
2021/12/06 10:04:53;;;;;;;49.75;31.73;;;;;;;2.51;91.76;99960.51;2897550;82;21050;-71
2021/12/06 10:08:56;;;;;;;46.30;32.85;;;;;;;2.54;91.66;99959.47;2897429;82;20983;-71
2021/12/06 10:12:58;;;;;;;53.50;31.73;;;;;;;2.69;91.30;99954.71;2897245;82;21000;-72
2021/12/06 10:16:59;;;;;;;57.23;30.92;;;;;;;2.69;90.87;99953.40;2897468;82;21065;-71
2021/12/06 10:21:02;;;;;;;53.75;34.48;;;;;;;2.77;90.48;99962.66;2863427;81;21027;-71
2021/12/06 10:25:06;;;;;;;48.85;32.03;;;;;;;2.79;89.90;99954.23;2859610;83;20970;-71
2021/12/06 10:29:19;;;;;;;50.85;32.48;;;;;;;2.91;89.95;99961.41;2859508;83;21613;-71
2021/12/06 10:33:21;;;;;;;52.30;34.10;;;;;;;2.88;89.47;99962.91;2858655;83;21014;-67
2021/12/06 10:37:46;;;;;;;52.43;33.05;;;;;;;2.93;89.28;99966.11;2859719;83;21046;-67
2021/12/06 10:41:53;;;;;;;39.63;26.02;;;;;;;2.92;89.16;99974.93;2859860;83;21546;-65
2021/12/06 10:45:56;;;;;;;46.98;31.37;;;;;;;2.85;89.43;99969.64;2860194;83;20991;-68
2021/12/06 10:50:19;;;;;;;48.13;28.42;;;;;;;2.78;89.78;99965.19;2859726;83;21030;-71
2021/12/06 10:54:36;;;;;;;47.05;28.20;;;;;;;2.73;89.61;99963.73;2859258;83;20994;-70
2021/12/06 10:58:38;;;;;;;44.60;29.67;;;;;;;2.73;90.04;99961.11;2859619;83;21626;-71
2021/12/06 11:02:49;;;;;;;39.58;28.00;;;;;;;2.67;90.48;99968.39;2859823;83;20974;-71
2021/12/06 11:06:55;;;;;;;50.78;31.70;;;;;;;2.64;90.74;99967.70;2859715;83;21018;-71
2021/12/06 11:11:02;;;;;;;42.95;26.73;;;;;;;2.61;91.04;99968.73;2859476;83;21003;-71
2021/12/06 11:15:13;;;;;;;50.20;27.52;;;;;;;2.61;91.57;99972.67;2902730;81;20951;-69
2021/12/06 11:19:18;;;;;;;49.83;30.25;;;;;;;2.56;91.83;99968.98;2917130;81;21069;-69
2021/12/06 11:23:19;;;;;;;43.80;26.85;;;;;;;2.54;91.97;99970.84;2927506;81;20955;-69
2021/12/06 11:27:25;;;;;;;44.20;28.02;;;;;;;2.48;92.01;99971.63;2917688;81;21006;-68
2021/12/06 11:31:27;;;;;;;40.10;27.50;;;;;;;2.51;91.34;99972.77;2917867;81;21038;-68
2021/12/06 11:35:33;;;;;;;37.63;23.35;;;;;;;2.47;91.18;99976.50;2927052;81;30280;-68
2021/12/06 11:39:34;;;;;;;51.95;29.65;;;;;;;2.40;91.46;99969.41;2917874;81;21030;-68
2021/12/06 11:43:39;;;;;;;45.25;28.95;;;;;;;2.39;91.43;99966.39;2927415;81;21053;-68
2021/12/06 11:47:40;;;;;;;48.38;28.17;;;;;;;2.39;91.77;99969.89;2917460;81;21022;-69
2021/12/06 11:51:42;;;;;;;54.55;30.77;;;;;;;2.38;91.49;99969.50;2927434;81;20977;-68
2021/12/06 11:56:01;;;;;;;39.80;28.20;;;;;;;2.37;91.33;99981.39;2933092;80;21038;-68
2021/12/06 12:00:17;;;;;;;50.80;27.52;;;;;;;2.41;91.55;99973.27;2969509;80;21022;-68
2021/12/06 12:04:29;;;;;;;50.83;29.20;;;;;;;2.42;91.72;99976.73;2969531;80;20947;-68
2021/12/06 12:08:33;;;;;;;46.68;26.02;;;;;;;2.42;91.43;99982.84;2979693;79;21030;-69
2021/12/06 12:12:35;;;;;;;41.83;24.95;;;;;;;2.49;91.19;99982.06;2977190;80;21045;-70
2021/12/06 12:16:37;;;;;;;45.03;26.35;;;;;;;2.45;91.29;99975.73;2943548;81;20993;-67
2021/12/06 12:20:39;;;;;;;44.08;28.85;;;;;;;2.48;91.29;99982.12;2943649;80;21003;-68
2021/12/06 12:24:45;;;;;;;45.98;26.65;;;;;;;2.47;91.47;99985.23;2943589;81;20984;-68
2021/12/06 12:28:52;;;;;;;56.55;31.90;;;;;;;2.49;91.63;99987.77;2943606;80;20976;-68
2021/12/06 12:32:54;;;;;;;50.20;30.68;;;;;;;2.43;91.48;99987.17;2943858;80;20995;-71
2021/12/06 12:36:56;;;;;;;46.95;25.45;;;;;;;2.42;91.62;99986.78;2943652;80;20971;-67
2021/12/06 12:41:06;;;;;;;39.23;28.17;;;;;;;2.36;91.71;99988.43;2943810;81;20984;-66
2021/12/06 12:45:14;;;;;;;52.43;29.92;;;;;;;2.37;91.23;99986.19;2943198;80;21661;-67
2021/12/06 12:49:20;;;;;;;49.50;29.75;;;;;;;2.35;91.86;99985.39;2943770;80;21003;-66
2021/12/06 12:53:22;;;;;;;43.48;31.12;;;;;;;2.37;92.01;99990.12;2943415;80;20991;-68
2021/12/06 12:57:32;;;;;;;48.63;27.10;;;;;;;2.36;91.79;99982.31;2943794;81;21023;-66
2021/12/06 13:01:34;;;;;;;51.68;29.25;;;;;;;2.36;91.59;99987.12;2943913;80;20995;-68
2021/12/06 13:05:36;;;;;;;51.63;32.17;;;;;;;2.35;91.46;99989.33;2945069;80;20971;-68
2021/12/06 13:09:37;;;;;;;57.35;30.50;;;;;;;2.39;91.10;99990.89;2944320;81;21010;-67
2021/12/06 13:13:49;;;;;;;51.53;30.00;;;;;;;2.37;91.11;99984.88;2944029;80;21531;-67
2021/12/06 13:17:51;;;;;;;48.95;26.75;;;;;;;2.37;91.13;99987.95;2943944;81;21043;-65
2021/12/06 13:22:13;;;;;;;58.40;34.25;;;;;;;2.40;91.30;99994.34;2944007;80;20999;-68
2021/12/06 13:26:15;;;;;;;57.78;30.92;;;;;;;2.39;91.29;99988.71;2936008;80;21019;-76
2021/12/06 13:30:37;;;;;;;54.10;32.08;;;;;;;2.41;91.10;99988.16;2943114;81;20951;-70
2021/12/06 13:34:37;;;;;;;58.73;36.50;;;;;;;2.33;91.09;99997.75;2942439;80;21023;-74
2021/12/06 13:38:47;;;;;;;62.25;32.58;;;;;;;2.38;90.81;99994.45;2942405;80;20956;-76
2021/12/06 13:42:48;;;;;;;55.23;34.55;;;;;;;2.36;90.84;99993.68;2888253;82;21062;-75
2021/12/06 13:46:53;;;;;;;57.70;32.08;;;;;;;2.34;90.77;99998.13;2941446;81;20991;-74
2021/12/06 13:50:55;;;;;;;63.73;34.40;;;;;;;2.33;90.45;100003.48;2942148;80;21003;-74
2021/12/06 13:54:56;;;;;;;51.90;31.87;;;;;;;2.37;90.58;100011.13;2942218;81;20991;-74
2021/12/06 13:58:58;;;;;;;53.28;31.97;;;;;;;2.31;90.71;100010.11;2942095;80;20955;-69
2021/12/06 14:03:03;;;;;;;62.73;35.43;;;;;;;2.33;90.89;100012.19;2922935;81;20999;-71
2021/12/06 14:07:08;;;;;;;49.77;29.37;;;;;;;2.33;90.57;100014.81;2942359;81;21007;-70
2021/12/06 14:11:10;;;;;;;68.73;36.40;;;;;;;2.39;90.43;100011.89;2942374;81;21030;-77
2021/12/06 14:15:20;;;;;;;55.73;33.48;;;;;;;2.36;90.04;100010.74;2941374;80;21015;-73
2021/12/06 14:19:26;;;;;;;54.00;34.27;;;;;;;2.36;90.31;100016.45;2977482;80;21010;-73
2021/12/06 14:23:30;;;;;;;61.60;38.67;;;;;;;2.37;90.48;100021.62;2977684;80;21065;-77
2021/12/06 14:27:36;;;;;;;57.27;35.83;;;;;;;2.38;90.77;100022.45;2975277;80;20974;-74
2021/12/06 14:31:40;;;;;;;53.98;31.23;;;;;;;2.34;90.87;100032.26;2968588;80;21014;-70
2021/12/06 14:35:48;;;;;;;62.40;34.77;;;;;;;2.35;90.84;100031.81;2945345;79;20999;-66
2021/12/06 14:39:56;;;;;;;60.15;31.87;;;;;;;2.29;91.00;100042.16;2979510;80;21600;-70
2021/12/06 14:43:57;;;;;;;61.75;32.63;;;;;;;2.28;91.00;100045.70;2970494;80;20992;-72
2021/12/06 14:48:08;;;;;;;47.80;28.50;;;;;;;2.26;90.86;100044.94;2971070;80;20976;-68
2021/12/06 14:52:19;;;;;;;64.97;35.73;;;;;;;2.27;91.30;100055.83;2971043;79;21546;-72
2021/12/06 14:56:25;;;;;;;50.30;30.77;;;;;;;2.26;91.51;100056.75;2971985;80;21599;-74
2021/12/06 15:00:37;;;;;;;57.38;37.03;;;;;;;2.21;90.94;100064.02;2972153;80;21010;-72
2021/12/06 15:04:41;;;;;;;55.95;33.33;;;;;;;2.14;91.19;100070.87;2894472;81;21081;-71
2021/12/06 15:08:48;;;;;;;55.00;33.45;;;;;;;2.11;91.12;100066.26;2967868;80;20987;-68
2021/12/06 15:12:53;;;;;;;63.17;34.38;;;;;;;2.12;91.01;100064.02;2967536;80;21047;-74
2021/12/06 15:16:55;;;;;;;55.13;33.53;;;;;;;2.12;91.09;100070.10;2945990;80;21111;-73
2021/12/06 15:21:00;;;;;;;62.13;36.77;;;;;;;2.09;90.90;100072.05;2946172;80;20980;-72
2021/12/06 15:25:04;;;;;;;57.60;32.85;;;;;;;2.07;90.94;100076.53;2909326;82;21014;-71
2021/12/06 15:29:08;;;;;;;52.48;29.95;;;;;;;2.03;90.58;100082.83;2965343;80;21010;-71
2021/12/06 15:33:13;;;;;;;59.38;32.85;;;;;;;1.95;90.46;100089.31;2967130;80;21018;-72
2021/12/06 15:37:16;;;;;;;59.20;30.88;;;;;;;1.92;90.71;100085.53;2944370;81;21007;-71
2021/12/06 15:41:26;;;;;;;56.50;31.73;;;;;;;1.92;90.72;100076.80;2874806;82;21143;-71
2021/12/06 15:45:28;;;;;;;46.63;25.30;;;;;;;1.94;90.35;100081.06;2954706;80;20967;-72
2021/12/06 15:49:31;;;;;;;47.15;28.30;;;;;;;1.94;90.58;100092.00;2964797;80;20974;-74
2021/12/06 15:53:33;;;;;;;49.58;26.35;;;;;;;1.92;90.53;100089.92;2929120;80;20967;-73
2021/12/06 15:57:40;;;;;;;42.67;27.48;;;;;;;1.93;90.10;100095.10;2960426;80;21030;-72
2021/12/06 16:01:45;;;;;;;56.73;30.85;;;;;;;1.94;90.61;100099.88;2948151;80;21424;-71
2021/12/06 16:05:46;;;;;;;60.78;30.97;;;;;;;1.90;90.50;100099.64;2957095;80;20959;-70
2021/12/06 16:09:48;;;;;;;67.72;33.33;;;;;;;2.00;91.07;100103.53;2905071;82;21019;-71
2021/12/06 16:13:52;;;;;;;51.28;27.80;;;;;;;1.99;90.66;100101.35;2959736;79;21054;-71
2021/12/06 16:17:57;;;;;;;50.75;31.77;;;;;;;2.06;90.49;100106.28;2918480;81;21034;-73
2021/12/06 16:21:59;;;;;;;59.33;30.77;;;;;;;2.10;90.33;100111.31;2916287;81;21002;-71
2021/12/06 16:26:06;;;;;;;47.38;29.23;;;;;;;2.13;90.03;100110.33;2916115;80;20993;-72
2021/12/06 16:30:10;;;;;;;55.78;29.82;;;;;;;2.17;90.25;100117.12;2915999;81;21008;-72
2021/12/06 16:34:17;;;;;;;50.85;30.52;;;;;;;2.16;89.88;100117.18;2916305;81;21001;-73
2021/12/06 16:38:31;;;;;;;52.35;31.23;;;;;;;2.16;89.98;100115.87;2912633;80;21039;-68
2021/12/06 16:42:50;;;;;;;56.28;32.35;;;;;;;2.17;89.70;100116.28;2910271;81;21019;-71
2021/12/06 16:47:02;;;;;;;58.23;33.78;;;;;;;2.14;89.37;100114.65;2943920;80;21831;-71
2021/12/06 16:51:04;;;;;;;64.80;27.48;;;;;;;2.16;88.86;100121.11;2941988;80;20967;-72
2021/12/06 16:55:16;;;;;;;52.15;29.87;;;;;;;2.12;89.05;100125.20;2939827;80;21053;-69
2021/12/06 16:59:18;;;;;;;49.38;30.57;;;;;;;2.14;89.48;100119.42;2950482;80;21578;-70
2021/12/06 17:03:27;;;;;;;54.05;29.85;;;;;;;2.16;88.70;100115.87;2929099;80;20987;-73
2021/12/06 17:07:36;;;;;;;60.40;33.60;;;;;;;2.16;88.75;100120.67;2975873;80;21640;-70
2021/12/06 17:11:40;;;;;;;53.02;30.92;;;;;;;2.20;89.32;100121.38;2926051;81;20990;-71
2021/12/06 17:15:42;;;;;;;46.70;30.77;;;;;;;2.21;88.90;100116.03;2926393;80;21028;-68
2021/12/06 17:19:44;;;;;;;57.25;31.42;;;;;;;2.16;88.54;100117.18;2976788;80;21030;-69
2021/12/06 17:23:47;;;;;;;49.48;31.95;;;;;;;2.18;88.38;100123.23;2976299;80;21002;-70
2021/12/06 17:27:49;;;;;;;55.65;31.10;;;;;;;2.16;88.39;100120.67;2971981;80;21057;-71
2021/12/06 17:31:57;;;;;;;61.35;31.75;;;;;;;2.14;88.75;100119.42;2960786;80;20999;-71
2021/12/06 17:36:03;;;;;;;49.60;29.87;;;;;;;2.13;88.50;100117.72;2957239;80;21007;-70
2021/12/06 17:40:06;;;;;;;54.23;29.70;;;;;;;2.19;88.64;100115.74;2957413;80;21010;-70
2021/12/06 17:44:11;;;;;;;55.73;32.85;;;;;;;2.22;88.71;100112.48;2956967;80;20990;-67
2021/12/06 17:48:13;;;;;;;60.17;34.98;;;;;;;2.22;88.59;100112.96;2957354;80;21488;-69
2021/12/06 17:52:14;;;;;;;59.38;34.15;;;;;;;2.27;88.49;100112.26;2963416;80;20970;-70
2021/12/06 17:56:17;;;;;;;59.60;36.53;;;;;;;2.23;88.04;100109.41;2936865;80;21006;-69
2021/12/06 18:00:21;;;;;;;63.80;36.65;;;;;;;2.25;88.27;100108.86;2906929;82;21006;-70
2021/12/06 18:04:33;;;;;;;55.65;34.60;;;;;;;2.28;88.10;100113.95;2906907;82;20967;-69
2021/12/06 18:08:35;;;;;;;54.53;35.98;;;;;;;2.28;87.91;100112.64;2906665;82;21002;-71
2021/12/06 18:12:37;;;;;;;64.67;41.13;;;;;;;2.28;88.02;100116.58;2965449;80;21558;-70
2021/12/06 18:16:40;;;;;;;57.38;33.67;;;;;;;2.30;88.03;100117.83;2935706;80;21038;-69
2021/12/06 18:20:43;;;;;;;62.90;38.85;;;;;;;2.30;88.15;100114.73;2890860;81;21015;-69
2021/12/06 18:24:46;;;;;;;58.70;32.40;;;;;;;2.33;88.23;100118.98;2930468;81;21019;-67
2021/12/06 18:28:48;;;;;;;61.42;35.58;;;;;;;2.34;88.31;100110.18;2945019;81;20971;-70
2021/12/06 18:32:51;;;;;;;52.93;34.85;;;;;;;2.32;87.83;100108.09;2944706;81;21050;-70
2021/12/06 18:36:53;;;;;;;50.23;34.15;;;;;;;2.36;87.95;100110.50;2944735;80;21058;-70
2021/12/06 18:41:00;;;;;;;59.63;34.13;;;;;;;2.36;87.43;100105.25;2944576;81;21038;-72
2021/12/06 18:45:02;;;;;;;52.55;34.78;;;;;;;2.34;87.22;100114.95;2944396;80;21062;-69
2021/12/06 18:49:04;;;;;;;58.55;34.03;;;;;;;2.37;87.05;100109.58;2944660;81;20964;-70
2021/12/06 18:53:11;;;;;;;52.67;35.20;;;;;;;2.35;87.09;100108.77;2944735;80;21070;-69
2021/12/06 18:57:12;;;;;;;;;;;;;;;2.39;87.08;100107.72;2927759;81;21519;-71
2021/12/06 19:01:19;;;;;;;56.20;32.83;;;;;;;2.45;86.75;100110.95;2915892;81;20122;-71
2021/12/06 19:05:22;;;;;;;54.38;32.63;;;;;;;2.42;86.32;100108.87;2944768;80;21003;-70